Time;durP1;ratioP1;P1;durP2;ratioP2;P2;SDS_P1;SDS_P2;PMS_P1;PMS_P2;Temp;Humidity;BMP_temperature;BMP_pressure;BME280_temperature;BME280_humidity;BME280_pressure;Samples;Min_cycle;Max_cycle;Signal;HPM_P1;HPM_P2
2021/09/02 00:01:26;;;;;;;23.27;11.68;;;;;;;18.34;58.10;102008.19;5014657;28;20028;-92
2021/09/02 00:03:52;;;;;;;21.83;12.40;;;;;;;18.45;57.58;102015.38;5014699;28;20088;-92
2021/09/02 00:06:17;;;;;;;21.98;11.55;;;;;;;18.24;57.49;102006.22;5014370;28;20392;-90
2021/09/02 00:08:43;;;;;;;19.67;10.85;;;;;;;17.95;58.31;102010.19;5014309;28;20389;-91
2021/09/02 00:11:08;;;;;;;17.73;10.68;;;;;;;18.18;57.58;102003.19;5014213;28;20056;-91
2021/09/02 00:13:34;;;;;;;23.38;11.63;;;;;;;18.17;57.94;102006.81;5013101;28;20030;-90
2021/09/02 00:16:01;;;;;;;20.60;11.63;;;;;;;18.03;57.51;102007.84;5014163;28;20022;-91
2021/09/02 00:18:26;;;;;;;15.00;10.07;;;;;;;18.24;57.02;102014.19;5014311;28;20122;-91
2021/09/02 00:20:52;;;;;;;18.40;10.25;;;;;;;18.22;56.75;102005.50;5014529;28;20104;-91
2021/09/02 00:23:17;;;;;;;20.73;10.90;;;;;;;18.04;57.30;102006.88;5014579;28;20496;-90
2021/09/02 00:25:42;;;;;;;16.45;10.18;;;;;;;17.89;57.59;101997.38;5014307;28;20099;-91
2021/09/02 00:28:08;;;;;;;27.35;10.98;;;;;;;18.29;56.91;102002.41;5014936;28;20102;-91
2021/09/02 00:30:33;;;;;;;15.10;9.25;;;;;;;18.32;56.46;101994.16;5014901;28;20079;-91
2021/09/02 00:32:58;;;;;;;19.83;10.23;;;;;;;18.36;56.36;101995.63;5014652;28;20029;-91
2021/09/02 00:35:24;;;;;;;17.00;10.00;;;;;;;18.33;56.60;102002.03;5014733;28;20033;-91
2021/09/02 00:37:49;;;;;;;16.77;9.48;;;;;;;18.40;56.39;101991.78;5014672;28;20477;-91
2021/09/02 00:47:30;;;;;;;16.52;9.60;;;;;;;18.26;56.43;101989.31;5014274;28;20022;-91
2021/09/02 00:49:55;;;;;;;19.33;10.13;;;;;;;18.34;56.24;101998.41;5014079;28;20061;-91
2021/09/02 00:52:25;;;;;;;19.33;9.23;;;;;;;18.20;56.57;101991.47;5013660;28;20134;-92
2021/09/02 00:54:54;;;;;;;14.48;8.93;;;;;;;18.34;56.15;101986.94;5013293;28;20037;-91
2021/09/02 00:57:24;;;;;;;14.80;8.80;;;;;;;18.49;55.97;101985.75;5013514;28;20022;-91
2021/09/02 00:59:51;;;;;;;17.42;9.30;;;;;;;18.39;56.14;101974.16;5013477;28;20041;-92
2021/09/02 01:02:22;;;;;;;20.50;9.95;;;;;;;18.41;55.99;101985.50;5013482;28;20033;-91
2021/09/02 01:04:49;;;;;;;21.33;9.95;;;;;;;18.31;56.40;101972.06;5013204;28;20468;-90
2021/09/02 01:07:16;;;;;;;15.73;9.73;;;;;;;18.38;56.29;101972.44;5013086;28;20530;-91
2021/09/02 01:09:42;;;;;;;14.13;10.02;;;;;;;18.39;56.33;101969.66;5011964;28;20095;-91
2021/09/02 01:12:37;;;;;;;14.60;8.43;;;;;;;18.61;56.03;101968.84;5013438;28;20034;-91
2021/09/02 01:15:15;;;;;;;17.83;9.45;;;;;;;18.50;56.26;101966.16;5013130;28;20021;-91
2021/09/02 01:17:42;;;;;;;18.33;9.77;;;;;;;18.41;56.20;101961.56;5013282;28;20026;-90
2021/09/02 01:20:13;;;;;;;18.02;9.40;;;;;;;18.42;56.32;101965.91;5013078;28;20026;-91
2021/09/02 01:22:39;;;;;;;15.67;9.70;;;;;;;18.30;56.42;101959.72;5013216;28;20041;-92
2021/09/02 01:25:09;;;;;;;17.13;9.38;;;;;;;18.39;56.44;101966.16;5012517;28;20334;-91
2021/09/02 01:27:35;;;;;;;15.73;9.13;;;;;;;18.16;56.94;101968.75;5013162;28;20034;-91
2021/09/02 01:30:04;;;;;;;15.95;8.93;;;;;;;18.18;56.97;101961.50;5012792;28;20108;-91
2021/09/02 01:32:33;;;;;;;17.52;9.13;;;;;;;18.32;56.66;101963.09;5012934;28;20057;-90
2021/09/02 01:35:00;;;;;;;14.73;8.95;;;;;;;18.26;56.91;101957.41;5012881;28;20357;-90
2021/09/02 01:37:26;;;;;;;14.07;8.30;;;;;;;18.27;56.85;101959.97;5011508;28;20076;-91
2021/09/02 01:39:52;;;;;;;21.45;10.00;;;;;;;18.34;56.62;101955.00;5012926;28;20030;-91
2021/09/02 01:42:18;;;;;;;17.23;9.18;;;;;;;18.23;57.03;101953.19;5011602;28;20022;-91
2021/09/02 01:44:45;;;;;;;14.38;9.52;;;;;;;18.27;57.07;101951.16;5012738;28;20108;-90
2021/09/02 01:47:25;;;;;;;14.32;9.57;;;;;;;18.49;56.35;101943.22;5012796;28;20409;-91
2021/09/02 01:49:52;;;;;;;18.48;8.35;;;;;;;18.30;56.84;101942.91;5012649;28;20030;-91
2021/09/02 01:52:19;;;;;;;20.55;9.93;;;;;;;18.19;56.93;101941.09;5011488;28;20030;-91
2021/09/02 01:54:46;;;;;;;21.13;9.38;;;;;;;18.28;56.84;101942.19;5012267;28;20041;-91
2021/09/02 01:57:13;;;;;;;18.67;9.38;;;;;;;18.22;56.69;101936.38;5012520;28;20041;-91
2021/09/02 01:59:38;;;;;;;13.85;7.72;;;;;;;18.25;56.73;101937.97;5012770;28;20109;-91
2021/09/02 02:02:04;;;;;;;15.77;8.57;;;;;;;18.44;56.27;101929.41;5012425;28;20113;-91
2021/09/02 02:04:29;;;;;;;13.00;8.00;;;;;;;18.42;56.38;101921.56;5012111;28;20026;-92
2021/09/02 02:06:55;;;;;;;21.33;9.82;;;;;;;18.50;55.88;101928.94;5012498;28;20080;-91
2021/09/02 02:09:20;;;;;;;14.60;8.82;;;;;;;18.47;56.25;101923.88;5012304;28;20033;-92
2021/09/02 02:11:46;;;;;;;16.15;9.18;;;;;;;18.49;56.40;101929.06;5012306;28;20032;-91
2021/09/02 02:14:11;;;;;;;19.13;9.73;;;;;;;18.49;56.37;101924.59;5012568;28;20076;-90
2021/09/02 02:16:37;;;;;;;17.08;8.38;;;;;;;18.35;56.59;101930.97;5012101;28;20025;-90
2021/09/02 02:19:03;;;;;;;19.52;8.90;;;;;;;18.38;56.65;101919.25;5012390;28;20034;-90
2021/09/02 02:21:28;;;;;;;14.80;8.65;;;;;;;18.40;56.76;101918.19;5012335;28;20033;-91
2021/09/02 02:23:53;;;;;;;17.42;9.13;;;;;;;18.24;56.99;101915.81;5012142;28;20026;-91
2021/09/02 02:26:19;;;;;;;14.07;8.27;;;;;;;18.33;56.93;101916.13;5011991;28;20026;-92
2021/09/02 02:28:44;;;;;;;17.40;9.32;;;;;;;18.31;57.17;101915.38;5012715;28;20053;-91
2021/09/02 02:31:09;;;;;;;17.52;8.98;;;;;;;18.16;57.79;101915.56;5013055;28;20029;-91
2021/09/02 02:33:35;;;;;;;15.35;8.50;;;;;;;18.14;57.97;101909.53;5011335;28;20050;-91
2021/09/02 02:36:00;;;;;;;13.30;8.02;;;;;;;18.24;58.16;101899.03;5012151;28;20080;-92
2021/09/02 02:38:26;;;;;;;16.08;8.77;;;;;;;18.27;57.96;101887.34;5016243;28;20353;-91
2021/09/02 02:40:51;;;;;;;14.45;8.73;;;;;;;18.28;58.05;101895.19;5016198;28;20049;-92
2021/09/02 02:43:16;;;;;;;20.27;9.05;;;;;;;18.00;59.18;101888.47;5016224;28;20030;-92
2021/09/02 02:45:42;;;;;;;15.15;8.60;;;;;;;18.14;58.92;101896.22;5016460;28;20499;-91
2021/09/02 02:48:07;;;;;;;15.95;8.25;;;;;;;18.15;58.77;101900.59;5015954;28;20052;-92
2021/09/02 02:50:33;;;;;;;20.40;9.27;;;;;;;18.14;59.12;101895.41;5015937;28;20037;-91
2021/09/02 02:52:59;;;;;;;18.30;7.60;;;;;;;18.08;59.42;101894.06;5016076;28;20033;-92
2021/09/02 02:55:25;;;;;;;18.17;8.70;;;;;;;18.03;59.40;101896.22;5015643;28;20396;-91
2021/09/02 02:57:50;;;;;;;20.15;8.52;;;;;;;18.02;59.50;101905.16;5015861;28;20079;-91
2021/09/02 03:00:16;;;;;;;16.20;8.65;;;;;;;18.00;59.94;101899.09;5015835;28;20353;-91
2021/09/02 03:02:41;;;;;;;22.77;8.20;;;;;;;18.06;59.67;101903.94;5015677;28;20530;-91
2021/09/02 03:05:08;;;;;;;18.35;8.05;;;;;;;18.01;59.96;101896.34;5015580;28;20037;-91
2021/09/02 03:07:37;;;;;;;19.30;8.40;;;;;;;18.21;59.68;101902.78;5015664;28;20026;-91
2021/09/02 03:10:05;;;;;;;15.88;8.15;;;;;;;18.17;59.97;101892.50;5015558;28;20492;-91
2021/09/02 03:12:30;;;;;;;15.70;8.55;;;;;;;18.15;60.17;101891.78;5015541;28;20476;-91
2021/09/02 03:14:56;;;;;;;20.38;8.75;;;;;;;18.10;60.53;101900.09;5015537;28;20018;-91
2021/09/02 03:17:21;;;;;;;19.10;8.50;;;;;;;17.98;61.07;101893.91;5015403;28;20041;-91
2021/09/02 03:19:46;;;;;;;22.77;8.27;;;;;;;18.02;60.66;101894.50;5015333;28;20109;-91
2021/09/02 03:22:12;;;;;;;23.65;8.85;;;;;;;17.98;61.28;101895.72;5015346;28;20060;-91
2021/09/02 03:24:37;;;;;;;16.17;8.48;;;;;;;18.06;60.76;101893.31;5015193;28;20534;-91
2021/09/02 03:27:03;;;;;;;17.08;8.30;;;;;;;18.04;61.08;101881.97;5015108;28;20071;-90
2021/09/02 03:29:28;;;;;;;11.63;6.63;;;;;;;18.06;61.12;101881.84;5015237;28;20065;-91
2021/09/02 03:31:54;;;;;;;19.17;8.48;;;;;;;18.03;61.25;101880.28;5015197;28;20025;-90
2021/09/02 03:34:19;;;;;;;17.90;7.97;;;;;;;18.06;61.21;101877.38;5015088;28;20025;-91
2021/09/02 03:36:48;;;;;;;23.08;8.35;;;;;;;17.93;61.43;101871.28;5015169;28;20030;-92
2021/09/02 03:39:13;;;;;;;20.60;7.30;;;;;;;18.02;61.07;101866.13;5013722;28;20022;-91
2021/09/02 03:41:41;;;;;;;18.88;7.75;;;;;;;18.00;61.07;101868.06;5015058;28;20026;-91
2021/09/02 03:44:06;;;;;;;22.83;8.13;;;;;;;17.97;61.42;101854.16;5014936;28;20109;-91
2021/09/02 03:46:32;;;;;;;14.60;7.15;;;;;;;17.99;61.50;101853.09;5015026;28;20148;-91
2021/09/02 03:48:57;;;;;;;13.70;7.35;;;;;;;18.01;61.46;101858.28;5014286;28;20022;-91
2021/09/02 03:51:22;;;;;;;19.52;8.35;;;;;;;18.06;61.10;101861.44;5014686;28;20037;-91
2021/09/02 03:53:48;;;;;;;15.05;7.78;;;;;;;18.03;61.18;101849.22;5015042;28;20127;-91
2021/09/02 03:56:13;;;;;;;22.15;7.65;;;;;;;18.01;61.36;101850.31;5014534;28;20493;-91
2021/09/02 03:58:39;;;;;;;23.35;8.32;;;;;;;17.98;61.23;101854.03;5014560;28;20030;-91
2021/09/02 04:01:04;;;;;;;21.13;8.05;;;;;;;18.08;61.19;101853.34;5014508;28;20138;-92
2021/09/02 04:03:29;;;;;;;20.15;7.60;;;;;;;18.04;61.44;101853.56;5014451;28;20026;-92
2021/09/02 04:05:55;;;;;;;16.63;7.88;;;;;;;17.99;61.51;101861.06;5014347;28;20032;-90
2021/09/02 04:08:20;;;;;;;19.30;9.00;;;;;;;17.95;61.88;101853.41;5014445;28;20116;-91
2021/09/02 04:10:45;;;;;;;18.30;7.60;;;;;;;17.86;62.10;101854.13;5014386;28;20116;-91
2021/09/02 04:13:11;;;;;;;18.13;8.57;;;;;;;18.04;61.51;101855.38;5014286;28;20022;-91
2021/09/02 04:15:36;;;;;;;14.05;7.80;;;;;;;18.16;61.16;101850.94;5014071;28;20053;-92
2021/09/02 04:18:02;;;;;;;17.33;8.40;;;;;;;18.26;61.08;101859.03;5014177;28;20026;-91
2021/09/02 04:20:27;;;;;;;17.33;8.13;;;;;;;18.13;61.65;101856.50;5012996;28;20030;-91
2021/09/02 04:22:52;;;;;;;18.67;8.35;;;;;;;18.06;61.38;101857.94;5013918;28;20026;-90
2021/09/02 04:25:18;;;;;;;21.13;9.30;;;;;;;18.14;61.29;101859.03;5014192;28;20029;-91
2021/09/02 04:27:43;;;;;;;13.02;7.65;;;;;;;18.17;61.54;101853.47;5014127;28;20022;-91
2021/09/02 04:30:09;;;;;;;16.92;8.50;;;;;;;18.09;62.12;101855.00;5013838;28;20473;-91
2021/09/02 04:32:34;;;;;;;17.15;8.02;;;;;;;18.17;61.53;101861.44;5014021;28;20667;-91
2021/09/02 04:35:00;;;;;;;17.52;8.68;;;;;;;18.23;61.43;101855.66;5013808;28;20022;-91
2021/09/02 04:37:25;;;;;;;18.10;8.68;;;;;;;18.37;61.05;101859.91;5012496;28;20045;-91
2021/09/02 04:39:50;;;;;;;14.50;7.75;;;;;;;18.34;61.21;101856.63;5014042;28;20030;-91
2021/09/02 04:42:16;;;;;;;22.13;8.02;;;;;;;18.29;61.28;101853.50;5012646;28;20025;-91
2021/09/02 04:44:41;;;;;;;18.42;8.32;;;;;;;18.20;62.01;101844.41;5013849;28;20064;-91
2021/09/02 04:47:06;;;;;;;16.63;7.93;;;;;;;18.13;62.15;101841.41;5013858;28;20033;-91
2021/09/02 04:49:32;;;;;;;18.77;8.30;;;;;;;18.09;62.30;101836.41;5013431;28;20105;-91
2021/09/02 04:51:57;;;;;;;20.00;8.13;;;;;;;17.95;63.10;101837.47;5012343;28;20033;-91
2021/09/02 04:54:22;;;;;;;19.17;7.97;;;;;;;18.16;62.38;101849.13;5013582;28;20026;-92
2021/09/02 04:56:48;;;;;;;19.63;8.95;;;;;;;18.04;63.08;101850.06;5012316;28;20029;-91
2021/09/02 04:59:13;;;;;;;18.52;8.43;;;;;;;18.17;62.46;101856.13;5012636;28;20076;-91
2021/09/02 05:01:38;;;;;;;18.65;8.25;;;;;;;18.15;62.52;101858.06;5013559;28;20058;-91
2021/09/02 05:04:04;;;;;;;16.40;8.70;;;;;;;18.19;62.30;101845.41;5013373;28;20026;-91
2021/09/02 05:06:29;;;;;;;19.70;8.32;;;;;;;18.16;62.60;101846.47;5013285;28;20022;-91
2021/09/02 05:08:54;;;;;;;22.80;10.38;;;;;;;18.04;63.00;101853.56;5013184;28;20495;-91
2021/09/02 05:11:20;;;;;;;15.32;8.50;;;;;;;18.04;63.02;101853.56;5013104;28;20095;-91
2021/09/02 05:13:45;;;;;;;17.02;9.25;;;;;;;18.02;63.06;101846.69;5013321;28;20030;-91
2021/09/02 05:16:10;;;;;;;15.88;8.93;;;;;;;18.11;62.78;101853.97;5013047;28;20488;-91
2021/09/02 05:18:36;;;;;;;16.98;9.48;;;;;;;18.14;63.03;101843.06;5013208;28;20048;-91
2021/09/02 05:21:01;;;;;;;17.75;7.88;;;;;;;17.99;63.47;101844.25;5013017;28;20112;-91
2021/09/02 05:23:27;;;;;;;13.75;7.78;;;;;;;18.08;63.18;101837.41;5013333;28;20034;-91
2021/09/02 05:25:52;;;;;;;17.75;9.10;;;;;;;17.85;64.09;101842.63;5013456;28;20026;-91
2021/09/02 05:28:17;;;;;;;21.92;9.50;;;;;;;17.84;64.23;101843.63;5013253;28;20379;-91
2021/09/02 05:30:43;;;;;;;19.38;9.13;;;;;;;17.90;64.03;101844.97;5012838;28;20026;-90
2021/09/02 05:33:08;;;;;;;17.50;8.85;;;;;;;17.89;64.07;101833.50;5013055;28;20033;-90
2021/09/02 05:35:34;;;;;;;20.25;8.40;;;;;;;17.82;64.25;101830.41;5012628;28;20068;-91
2021/09/02 05:37:59;;;;;;;17.52;8.95;;;;;;;17.84;64.76;101836.50;5012742;28;20034;-91
2021/09/02 05:40:24;;;;;;;18.55;8.93;;;;;;;17.80;65.28;101844.78;5011539;28;20028;-90
2021/09/02 05:42:50;;;;;;;15.40;8.48;;;;;;;17.87;64.86;101843.41;5012772;28;20105;-91
2021/09/02 05:45:15;;;;;;;19.20;8.45;;;;;;;17.57;66.12;101839.38;5011176;28;20369;-91
2021/09/02 05:47:41;;;;;;;18.33;8.23;;;;;;;17.78;65.34;101844.06;5012632;28;20010;-91
2021/09/02 05:50:07;;;;;;;19.70;8.68;;;;;;;17.84;65.45;101839.16;5012523;28;20065;-92
2021/09/02 05:52:32;;;;;;;20.10;9.32;;;;;;;17.81;65.83;101849.13;5012566;28;20037;-90
2021/09/02 05:54:58;;;;;;;15.50;7.32;;;;;;;17.80;65.96;101850.09;5012539;28;20088;-91
2021/09/02 05:57:23;;;;;;;17.63;7.25;;;;;;;17.86;65.87;101846.16;5012630;28;20490;-91
2021/09/02 05:59:49;;;;;;;15.48;7.32;;;;;;;17.76;65.96;101849.47;5012325;28;20021;-91
2021/09/02 06:02:14;;;;;;;14.80;7.82;;;;;;;17.72;66.62;101857.81;5012528;28;20033;-90
2021/09/02 06:04:40;;;;;;;19.08;6.50;;;;;;;17.82;66.09;101854.31;5012394;28;20029;-91
2021/09/02 06:07:05;;;;;;;10.40;6.22;;;;;;;17.90;65.77;101860.91;5012463;28;20048;-91
2021/09/02 06:09:31;;;;;;;14.73;6.05;;;;;;;18.01;65.81;101860.94;5012452;28;20108;-91
2021/09/02 06:11:56;;;;;;;11.93;5.40;;;;;;;18.02;65.87;101866.13;5011954;28;20037;-91
2021/09/02 06:14:21;;;;;;;13.23;6.57;;;;;;;18.07;65.56;101857.81;5012547;28;20030;-91
2021/09/02 06:16:47;;;;;;;10.88;5.63;;;;;;;18.03;65.98;101856.38;5012966;28;20105;-93
2021/09/02 06:19:12;;;;;;;9.35;5.40;;;;;;;18.01;66.14;101853.81;5013582;28;20041;-92
2021/09/02 06:21:37;;;;;;;13.75;5.60;;;;;;;17.91;66.53;101860.81;5013325;28;20062;-92
2021/09/02 06:24:03;;;;;;;9.88;4.35;;;;;;;17.98;66.10;101862.00;5015785;28;20025;-91
2021/09/02 06:26:28;;;;;;;13.43;4.60;;;;;;;17.88;66.79;101857.53;5014447;28;20029;-92
2021/09/02 06:28:54;;;;;;;12.65;4.60;;;;;;;17.86;67.07;101859.44;5011967;28;20109;-91
2021/09/02 06:31:19;;;;;;;8.40;4.03;;;;;;;17.87;67.31;101855.81;5011423;28;20052;-92
2021/09/02 06:33:44;;;;;;;7.88;3.47;;;;;;;17.88;66.79;101846.91;5012020;28;20034;-91
2021/09/02 06:36:10;;;;;;;10.90;4.15;;;;;;;17.80;67.58;101842.13;5012177;28;20030;-93
2021/09/02 06:38:35;;;;;;;11.15;3.90;;;;;;;18.10;66.33;101851.41;5011059;28;20030;-89
2021/09/02 06:41:00;;;;;;;10.73;3.55;;;;;;;18.13;66.26;101852.03;5012094;28;20032;-90
2021/09/02 06:43:26;;;;;;;12.90;3.95;;;;;;;17.90;66.81;101855.59;5012218;28;20415;-91
2021/09/02 06:45:51;;;;;;;7.63;3.90;;;;;;;17.72;67.54;101853.34;5010891;28;20030;-91
2021/09/02 06:48:16;;;;;;;7.20;3.92;;;;;;;18.08;66.27;101854.19;5011176;28;20025;-92
2021/09/02 06:50:42;;;;;;;9.80;3.53;;;;;;;17.81;67.22;101851.78;5011291;28;20036;-90
2021/09/02 06:53:07;;;;;;;11.93;3.78;;;;;;;17.79;67.50;101835.97;4993875;28;20103;-91
2021/09/02 06:55:33;;;;;;;9.35;3.05;;;;;;;18.05;66.59;101846.47;5012376;28;20023;-91
2021/09/02 06:57:59;;;;;;;10.65;3.45;;;;;;;18.01;66.67;101852.97;5012043;28;20560;-92
2021/09/02 07:00:24;;;;;;;12.63;3.28;;;;;;;17.91;66.44;101852.81;5015375;28;20090;-90
2021/09/02 07:02:50;;;;;;;8.93;3.38;;;;;;;17.95;66.98;101864.91;5013261;28;20056;-89
2021/09/02 07:05:16;;;;;;;8.30;3.00;;;;;;;18.18;66.08;101865.78;5010530;28;20511;-90
2021/09/02 07:07:42;;;;;;;11.20;3.72;;;;;;;17.98;66.96;101858.50;5016236;28;20069;-90
2021/09/02 07:10:08;;;;;;;7.90;3.63;;;;;;;18.11;65.91;101867.25;5013071;28;20121;-90
2021/09/02 07:12:33;;;;;;;5.28;2.47;;;;;;;18.37;65.26;101865.22;5026972;28;20056;-89
2021/09/02 07:14:59;;;;;;;8.75;2.80;;;;;;;18.48;64.82;101872.34;5019766;28;20033;-88
2021/09/02 07:17:24;;;;;;;6.68;2.90;;;;;;;18.42;64.93;101867.50;5022643;28;20041;-88
2021/09/02 07:19:50;;;;;;;7.75;3.53;;;;;;;18.39;64.72;101883.72;5012606;28;20017;-88
2021/09/02 07:22:15;;;;;;;10.75;3.20;;;;;;;18.33;65.41;101870.91;5012747;28;20033;-88
2021/09/02 07:24:40;;;;;;;10.77;3.20;;;;;;;18.42;64.94;101879.03;5025281;28;20030;-89
2021/09/02 07:27:06;;;;;;;9.55;3.28;;;;;;;18.36;64.70;101876.81;5021772;28;20041;-90
2021/09/02 07:29:31;;;;;;;12.65;3.15;;;;;;;18.48;64.48;101872.34;5028740;28;20026;-88
2021/09/02 07:31:57;;;;;;;8.90;2.80;;;;;;;18.38;64.65;101871.38;5027104;28;20161;-88
2021/09/02 07:34:23;;;;;;;8.45;2.97;;;;;;;18.40;64.49;101875.63;5018272;28;20061;-88
2021/09/02 07:36:48;;;;;;;7.13;2.83;;;;;;;18.50;64.83;101881.06;5033024;28;20094;-90
2021/09/02 07:39:15;;;;;;;7.55;2.78;;;;;;;18.56;64.30;101885.91;5029562;28;20021;-89
2021/09/02 07:41:40;;;;;;;5.95;2.88;;;;;;;18.63;63.64;101892.44;5015538;28;20053;-87
2021/09/02 07:44:06;;;;;;;7.15;2.33;;;;;;;18.68;63.73;101883.25;5029310;28;20067;-88
2021/09/02 07:46:31;;;;;;;8.82;2.45;;;;;;;18.62;63.76;101885.44;5018511;28;20033;-88
2021/09/02 07:48:57;;;;;;;5.55;2.20;;;;;;;18.52;63.99;101878.28;5027320;28;20029;-86
2021/09/02 07:51:22;;;;;;;6.50;3.03;;;;;;;18.60;63.75;101895.34;5015647;28;20022;-87
2021/09/02 07:53:48;;;;;;;6.60;2.97;;;;;;;18.69;63.53;101891.09;5024116;28;20026;-89
2021/09/02 07:56:14;;;;;;;9.80;2.50;;;;;;;18.75;63.44;101884.47;5017604;28;20496;-90
2021/09/02 07:58:41;;;;;;;6.63;2.90;;;;;;;18.45;64.10;101879.75;5027592;28;20029;-89
2021/09/02 08:01:10;;;;;;;6.80;3.28;;;;;;;18.73;63.33;101881.06;5029399;28;20032;-89
2021/09/02 08:03:37;;;;;;;9.57;2.90;;;;;;;18.75;63.13;101876.47;5022793;28;20029;-90
2021/09/02 08:06:02;;;;;;;6.63;2.58;;;;;;;18.75;63.47;101879.13;5024788;28;20022;-90
2021/09/02 08:08:28;;;;;;;6.90;2.15;;;;;;;18.66;62.80;101878.06;5014353;28;20028;-90
2021/09/02 08:10:53;;;;;;;9.77;3.22;;;;;;;18.69;62.80;101871.66;5014287;28;20026;-90
2021/09/02 08:13:19;;;;;;;5.97;2.38;;;;;;;18.74;62.89;101877.44;5014256;28;20498;-89
2021/09/02 08:15:44;;;;;;;5.55;2.25;;;;;;;18.88;63.10;101876.38;5014215;28;20022;-89
2021/09/02 08:18:11;;;;;;;7.32;2.17;;;;;;;18.82;62.72;101885.72;5014067;28;20392;-90
2021/09/02 08:20:37;;;;;;;6.93;2.97;;;;;;;18.77;62.82;101877.19;5014106;28;20512;-89
2021/09/02 08:23:03;;;;;;;5.57;2.83;;;;;;;18.80;62.89;101879.66;5014233;28;20040;-90
2021/09/02 08:25:28;;;;;;;8.82;2.60;;;;;;;18.72;62.73;101874.91;5013754;28;20026;-90
2021/09/02 08:27:54;;;;;;;9.82;3.42;;;;;;;18.74;62.57;101877.44;5013059;28;20052;-90
2021/09/02 08:30:22;;;;;;;5.90;2.97;;;;;;;18.91;62.34;101874.31;5013887;28;20040;-89
2021/09/02 08:32:50;;;;;;;7.43;2.78;;;;;;;18.97;62.86;101873.81;5013870;28;20025;-90
2021/09/02 08:35:22;;;;;;;8.75;4.00;;;;;;;18.94;62.63;101871.41;5013853;28;20380;-90
2021/09/02 08:37:51;;;;;;;7.05;2.92;;;;;;;19.07;61.99;101883.72;5013870;28;20022;-90
2021/09/02 08:40:19;;;;;;;11.32;2.63;;;;;;;19.21;61.88;101883.44;5012448;28;20022;-89
2021/09/02 08:42:45;;;;;;;8.10;2.58;;;;;;;19.26;61.62;101883.94;5013857;28;20053;-88
2021/09/02 08:45:11;;;;;;;4.63;2.63;;;;;;;19.16;61.50;101880.34;5015749;28;20423;-89
2021/09/02 08:47:37;;;;;;;8.70;3.20;;;;;;;19.13;61.45;101877.91;5013625;28;20018;-89
2021/09/02 08:50:04;;;;;;;8.02;3.05;;;;;;;19.12;61.61;101881.56;5013625;28;20129;-89
2021/09/02 08:52:30;;;;;;;10.45;3.22;;;;;;;18.67;62.42;101871.75;5013444;28;20032;-89
2021/09/02 08:54:57;;;;;;;12.25;3.25;;;;;;;19.10;61.47;101864.88;5013440;28;20018;-88
2021/09/02 08:57:23;;;;;;;9.45;3.10;;;;;;;19.24;60.96;101864.56;5013408;28;20048;-89
2021/09/02 08:59:48;;;;;;;16.88;4.20;;;;;;;19.19;61.15;101861.44;5013254;28;20030;-89
2021/09/02 09:02:27;;;;;;;10.70;3.60;;;;;;;19.29;60.47;101867.69;5013426;28;20026;-89
2021/09/02 09:05:07;;;;;;;7.30;3.13;;;;;;;19.49;60.29;101886.53;5013307;28;20021;-89
2021/09/02 09:07:45;;;;;;;5.72;2.78;;;;;;;19.67;59.49;101876.16;5013547;28;20038;-88
2021/09/02 09:10:14;;;;;;;10.25;3.50;;;;;;;19.59;59.90;101875.00;5013139;28;20032;-89
2021/09/02 09:12:52;;;;;;;7.15;2.85;;;;;;;19.74;59.73;101880.88;5013097;28;20030;-89
2021/09/02 09:15:24;;;;;;;4.68;2.58;;;;;;;19.66;59.52;101880.66;5013079;28;20022;-89
2021/09/02 09:17:51;;;;;;;9.10;3.55;;;;;;;19.78;59.92;101871.66;5013059;28;20021;-89
2021/09/02 09:20:19;;;;;;;11.88;3.35;;;;;;;19.85;59.98;101868.50;5012993;28;20034;-89
2021/09/02 09:22:57;;;;;;;6.22;3.25;;;;;;;20.08;59.00;101872.69;5012971;28;20033;-89
2021/09/02 09:25:23;;;;;;;7.07;2.88;;;;;;;20.11;58.16;101875.13;5012779;28;20022;-89
2021/09/02 09:27:54;;;;;;;6.25;2.60;;;;;;;20.09;58.03;101876.22;5012945;28;20041;-89
2021/09/02 09:30:31;;;;;;;7.50;3.67;;;;;;;20.26;58.17;101864.97;5012737;28;20117;-89
2021/09/02 09:33:04;;;;;;;6.32;3.30;;;;;;;20.50;57.10;101861.16;5012849;28;20025;-89
2021/09/02 09:35:33;;;;;;;6.93;2.70;;;;;;;20.01;58.19;101858.22;5012490;28;20104;-89
2021/09/02 09:38:07;;;;;;;5.25;2.33;;;;;;;20.40;57.42;101858.44;5012723;28;20084;-89
2021/09/02 09:40:34;;;;;;;5.68;2.60;;;;;;;20.45;57.48;101858.88;5012647;28;20076;-89
2021/09/02 09:43:10;;;;;;;9.32;2.78;;;;;;;20.39;57.78;101851.41;5012662;28;20026;-88
2021/09/02 09:45:53;;;;;;;4.53;2.38;;;;;;;20.69;56.68;101850.56;5011943;28;20077;-89
2021/09/02 09:48:24;;;;;;;8.80;2.83;;;;;;;20.87;56.30;101853.44;5012511;28;20022;-89
2021/09/02 09:51:06;;;;;;;4.78;2.58;;;;;;;21.11;55.28;101861.09;5012446;28;20506;-89
2021/09/02 09:53:32;;;;;;;5.80;2.72;;;;;;;20.91;55.55;101860.22;5012604;28;20113;-89
2021/09/02 09:55:58;;;;;;;9.18;2.90;;;;;;;20.94;55.89;101856.41;5012366;28;20152;-89
2021/09/02 09:58:26;;;;;;;7.43;2.97;;;;;;;21.32;55.43;101862.81;5012341;28;20105;-89
2021/09/02 10:00:58;;;;;;;6.57;2.92;;;;;;;21.24;54.80;101858.16;5012769;28;20033;-89
2021/09/02 10:03:23;;;;;;;5.60;2.80;;;;;;;21.17;54.47;101857.03;5011269;28;20099;-89
2021/09/02 10:05:50;;;;;;;7.95;3.35;;;;;;;20.75;55.04;101855.41;5012408;28;20477;-89
2021/09/02 10:08:16;;;;;;;9.88;3.65;;;;;;;21.06;55.29;101849.13;5012323;28;20113;-89
2021/09/02 10:10:42;;;;;;;5.22;2.63;;;;;;;21.32;54.64;101849.44;5010999;28;20548;-88
2021/09/02 10:13:08;;;;;;;6.32;2.90;;;;;;;21.42;54.18;101857.47;5012022;28;20113;-89
2021/09/02 10:15:34;;;;;;;5.53;2.88;;;;;;;21.57;53.90;101845.41;5012078;28;20141;-89
2021/09/02 10:18:01;;;;;;;9.35;3.28;;;;;;;21.47;54.20;101850.75;5012075;28;20026;-89
2021/09/02 10:20:31;;;;;;;5.32;2.70;;;;;;;21.67;53.65;101835.56;5012098;28;20018;-89
2021/09/02 10:22:59;;;;;;;9.35;2.90;;;;;;;21.40;54.71;101833.56;5012186;28;20037;-89
2021/09/02 10:25:33;;;;;;;6.63;2.63;;;;;;;21.75;54.03;101835.69;5012085;28;20022;-89
2021/09/02 10:28:08;;;;;;;5.28;2.55;;;;;;;22.33;52.92;101825.84;5010823;28;20037;-89
2021/09/02 10:30:53;;;;;;;6.40;2.58;;;;;;;22.46;51.96;101839.75;5011960;28;20029;-90
2021/09/02 10:33:40;;;;;;;5.90;2.60;;;;;;;22.36;51.88;101825.56;5012079;28;20025;-89
2021/09/02 10:36:15;;;;;;;5.13;2.55;;;;;;;22.74;51.42;101823.69;5011856;28;20030;-89
2021/09/02 10:38:44;;;;;;;5.15;2.92;;;;;;;23.05;51.20;101812.69;5012019;28;20484;-89
2021/09/02 10:41:11;;;;;;;9.57;3.03;;;;;;;22.94;49.91;101806.50;5011917;28;20034;-91
2021/09/02 10:43:56;;;;;;;7.78;2.50;;;;;;;23.21;49.71;101801.28;5011963;28;20030;-89
2021/09/02 10:46:31;;;;;;;6.07;2.72;;;;;;;22.71;50.54;101805.22;5011777;28;20033;-90
2021/09/02 10:49:19;;;;;;;7.03;2.97;;;;;;;22.66;50.47;101812.88;5011939;28;20388;-89
2021/09/02 10:51:55;;;;;;;3.88;1.98;;;;;;;22.85;50.51;101812.78;5011928;28;20034;-89
2021/09/02 10:54:26;;;;;;;9.65;3.00;;;;;;;22.89;50.56;101805.28;5011691;28;20022;-89
2021/09/02 10:57:02;;;;;;;6.28;2.97;;;;;;;23.00;50.13;101814.94;5011841;28;20481;-90
2021/09/02 10:59:45;;;;;;;7.90;2.30;;;;;;;23.02;50.23;101805.78;5015688;28;20046;-89
2021/09/02 11:02:16;;;;;;;5.35;2.70;;;;;;;23.11;50.74;101798.69;5015641;28;20116;-89
2021/09/02 11:04:42;;;;;;;;;;;;;;;22.96;50.84;101801.84;5014640;28;20032;-89
2021/09/02 11:07:08;;;;;;;5.43;2.50;;;;;;;22.68;50.70;101806.38;5015566;28;19917;-89
2021/09/02 11:09:34;;;;;;;7.05;2.65;;;;;;;22.68;50.99;101802.88;5015653;28;20030;-89
2021/09/02 11:12:02;;;;;;;4.05;2.25;;;;;;;22.17;51.47;101791.66;5015356;28;20026;-90
2021/09/02 11:14:27;;;;;;;5.63;2.50;;;;;;;22.39;50.93;101795.81;5015331;28;20025;-89
2021/09/02 11:16:53;;;;;;;4.82;2.67;;;;;;;22.11;52.15;101793.09;5015379;28;20484;-89
2021/09/02 11:19:32;;;;;;;6.00;2.60;;;;;;;22.51;50.75;101786.63;5015320;28;20111;-89
2021/09/02 11:22:05;;;;;;;4.40;2.42;;;;;;;22.49;50.69;101777.03;5015398;28;20052;-89
2021/09/02 11:24:37;;;;;;;5.63;3.03;;;;;;;22.67;50.13;101777.06;5015280;28;20095;-89
2021/09/02 11:27:02;;;;;;;5.82;3.10;;;;;;;22.55;50.27;101784.47;5015152;28;20021;-89